Tylertown, MS

4:08 PM CDT on March 24, 2017 (GMT -0500)
Smithburg Rd | | Change Station
Active Advisory: Wind Advisory

Elev 300 ft 31.03 °N, 90.28 °W | Updated 3 minutes ago

Mostly Cloudy
Mostly Cloudy
76.9 °F
Feels Like 79 °F
N
5.0
Wind Variable Wind from NE
Gusts 18.0 mph

Today
High -- | Low -- °F
--% Chance of Precip.
Yesterday
High -- | Low -- °F
Precip. -- in
Pressure 30.12 in
Visibility 10.0 miles
Clouds Few 3700 ft
Scattered Clouds 4700 ft
Scattered Clouds 5500 ft
Heat Index 79 °F
Dew Point 66 °F
Humidity 69%
Rainfall 0.00 in
Snow Depth Not available.
6:58 AM 7:14 PM
Waning Crescent, 13% visible
METAR KMCB 242053Z AUTO 15018G26KT 10SM FEW037 SCT047 SCT055 25/16 A3013 RMK AO2 PK WND 16029/2021 SLP199 T02500156 58020 TSNO
Pressure 30.12 in
Visibility 10.0 miles
Clouds Few 3700 ft
Scattered Clouds 4700 ft
Scattered Clouds 5500 ft
Heat Index 79 °F
Dew Point 66 °F
Humidity 69%
Rainfall 0.00 in
Snow Depth Not available.
6:58 AM 7:14 PM
Waning Crescent, 13% visible
METAR KMCB 242053Z AUTO 15018G26KT 10SM FEW037 SCT047 SCT055 25/16 A3013 RMK AO2 PK WND 16029/2021 SLP199 T02500156 58020 TSNO

Get Your Daily Forecast Email!

Thanks for signing up!

Be on the lookout for a verification email in your inbox.

You'll start receiving severe weather alerts in your inbox..

×

10-Day Weather Forecast

Almanac

Astronomy

Mar. 24, 2017 Rise Set
Actual Time
Civil Twilight
Nautical Twilight
Astronomical Twilight
Moon
Length of Visible Light
Length of Day
Tomorrow will be .
, % of the Moon is Illuminated

Today's Extremes

State Highs State Lows

Community

WunderPhotos

Upload Photos

1,962,540 photos uploaded!

WunderBlog® & News

Nearby

Air Quality

  Air Quality AQ Index Pollutant
Not available.

Snow Depth

Station Depth Elevation

Earthquake Activity

City Distance Mag. Time & Date
Minimum magnitude displayed is 2.5.

Earthquake Activity

City Distance Mag. Time & Date
Minimum magnitude displayed is 2.5.

Coastal Water Temperatures

Place Temperature

Stations

Nearby Weather Stations

Station Location Temp. Windchill Dew Point Humidity Wind Precip. Elev Updated Type
                   

Watches & Warnings

Wind Advisory
Issued: 3:39 PM CDT Mar. 24, 2017 – National Weather Service

... Wind Advisory remains in effect until 7 PM CDT this evening...

* timing... through 7 PM

* winds... 20 to 30 mph with gusts up to 40 mph

* impacts... difficult driving conditions for high profile
vehicles especially on east-west roadways and on bridges and
overpasses. Loose lawn objects along with trash cans will be
blown around.

Precautionary/preparedness actions...

A Wind Advisory means that winds of 26 to 39 mph are expected.
Winds this strong can make driving difficult... especially for
high profile vehicles. Use extra caution.